sensor_id;sensor_type;location;lat;lon;timestamp;pressure;altitude;pressure_sealevel;temperature;humidity
8523;BME280;4299;42.202;24.736;2023-01-29T00:01:09;99805.75;;;3.88;nan
8523;BME280;4299;42.202;24.736;2023-01-29T00:03:37;99810.00;;;3.94;nan
8523;BME280;4299;42.202;24.736;2023-01-29T00:06:06;99805.63;;;3.94;nan
8523;BME280;4299;42.202;24.736;2023-01-29T00:08:33;99793.31;;;3.96;nan
8523;BME280;4299;42.202;24.736;2023-01-29T00:11:01;99801.19;;;3.96;nan
8523;BME280;4299;42.202;24.736;2023-01-29T00:13:27;99807.25;;;3.98;nan
8523;BME280;4299;42.202;24.736;2023-01-29T00:15:55;99804.63;;;4.00;nan
8523;BME280;4299;42.202;24.736;2023-01-29T00:18:22;99806.38;;;3.99;nan
8523;BME280;4299;42.202;24.736;2023-01-29T00:20:50;99807.31;;;3.95;nan
8523;BME280;4299;42.202;24.736;2023-01-29T00:23:17;99822.94;;;4.01;nan
8523;BME280;4299;42.202;24.736;2023-01-29T00:25:44;99821.28;;;3.97;nan
8523;BME280;4299;42.202;24.736;2023-01-29T00:28:12;99814.41;;;3.93;nan
8523;BME280;4299;42.202;24.736;2023-01-29T00:30:39;99824.88;;;3.93;nan
8523;BME280;4299;42.202;24.736;2023-01-29T00:33:05;99826.63;;;3.94;nan
8523;BME280;4299;42.202;24.736;2023-01-29T00:35:33;99843.19;;;3.95;nan
8523;BME280;4299;42.202;24.736;2023-01-29T00:38:01;99840.63;;;3.93;nan
8523;BME280;4299;42.202;24.736;2023-01-29T00:40:27;99835.41;;;3.91;nan
8523;BME280;4299;42.202;24.736;2023-01-29T00:43:14;99835.44;;;3.90;nan
8523;BME280;4299;42.202;24.736;2023-01-29T00:45:58;99838.88;;;3.92;nan
8523;BME280;4299;42.202;24.736;2023-01-29T00:48:24;99838.75;;;3.98;nan
8523;BME280;4299;42.202;24.736;2023-01-29T00:50:51;99839.47;;;4.03;nan
8523;BME280;4299;42.202;24.736;2023-01-29T00:53:19;99842.00;;;4.08;nan
8523;BME280;4299;42.202;24.736;2023-01-29T00:55:46;99842.75;;;4.13;nan
8523;BME280;4299;42.202;24.736;2023-01-29T00:58:12;99841.88;;;4.12;nan
8523;BME280;4299;42.202;24.736;2023-01-29T01:00:39;99838.44;;;4.10;nan
8523;BME280;4299;42.202;24.736;2023-01-29T01:03:06;99838.59;;;4.04;nan
8523;BME280;4299;42.202;24.736;2023-01-29T01:05:32;99838.53;;;4.07;nan
8523;BME280;4299;42.202;24.736;2023-01-29T01:07:59;99842.03;;;4.06;nan
8523;BME280;4299;42.202;24.736;2023-01-29T01:10:29;99843.84;;;4.04;nan
8523;BME280;4299;42.202;24.736;2023-01-29T01:12:57;99838.75;;;3.98;nan
8523;BME280;4299;42.202;24.736;2023-01-29T01:15:25;99842.25;;;3.97;nan
8523;BME280;4299;42.202;24.736;2023-01-29T01:17:52;99844.81;;;4.00;nan
8523;BME280;4299;42.202;24.736;2023-01-29T01:20:20;99836.84;;;4.03;nan
8523;BME280;4299;42.202;24.736;2023-01-29T01:22:46;99840.31;;;4.05;nan
8523;BME280;4299;42.202;24.736;2023-01-29T01:25:13;99852.44;;;4.09;nan
8523;BME280;4299;42.202;24.736;2023-01-29T01:27:41;99836.66;;;4.12;nan
8523;BME280;4299;42.202;24.736;2023-01-29T01:30:10;99845.34;;;4.14;nan
8523;BME280;4299;42.202;24.736;2023-01-29T01:32:38;99843.63;;;4.13;nan
8523;BME280;4299;42.202;24.736;2023-01-29T01:35:06;99842.81;;;4.10;nan
8523;BME280;4299;42.202;24.736;2023-01-29T01:37:33;99843.75;;;4.09;nan
8523;BME280;4299;42.202;24.736;2023-01-29T01:40:02;99848.88;;;4.13;nan
8523;BME280;4299;42.202;24.736;2023-01-29T01:42:30;99842.75;;;4.13;nan
8523;BME280;4299;42.202;24.736;2023-01-29T01:44:59;99850.59;;;4.14;nan
8523;BME280;4299;42.202;24.736;2023-01-29T01:47:33;99843.59;;;4.15;nan
8523;BME280;4299;42.202;24.736;2023-01-29T01:50:06;99848.94;;;4.10;nan
8523;BME280;4299;42.202;24.736;2023-01-29T01:52:37;99845.50;;;4.08;nan
8523;BME280;4299;42.202;24.736;2023-01-29T01:55:07;99844.63;;;4.08;nan
8523;BME280;4299;42.202;24.736;2023-01-29T01:57:35;99848.19;;;4.05;nan
8523;BME280;4299;42.202;24.736;2023-01-29T02:00:07;99852.59;;;4.03;nan
8523;BME280;4299;42.202;24.736;2023-01-29T02:02:37;99850.88;;;4.02;nan
8523;BME280;4299;42.202;24.736;2023-01-29T02:05:22;99853.56;;;4.01;nan
8523;BME280;4299;42.202;24.736;2023-01-29T02:08:10;99858.00;;;3.97;nan
8523;BME280;4299;42.202;24.736;2023-01-29T02:10:55;99853.63;;;3.96;nan
8523;BME280;4299;42.202;24.736;2023-01-29T02:13:22;99857.09;;;3.98;nan
8523;BME280;4299;42.202;24.736;2023-01-29T02:15:50;99858.00;;;3.97;nan
8523;BME280;4299;42.202;24.736;2023-01-29T02:18:19;99859.66;;;4.01;nan
8523;BME280;4299;42.202;24.736;2023-01-29T02:20:52;99856.25;;;3.96;nan
8523;BME280;4299;42.202;24.736;2023-01-29T02:24:03;99862.34;;;3.98;nan
8523;BME280;4299;42.202;24.736;2023-01-29T02:26:42;99860.81;;;3.88;nan
8523;BME280;4299;42.202;24.736;2023-01-29T02:29:18;99864.25;;;3.91;nan
8523;BME280;4299;42.202;24.736;2023-01-29T02:31:58;99876.50;;;3.91;nan
8523;BME280;4299;42.202;24.736;2023-01-29T02:34:37;99873.88;;;3.91;nan
8523;BME280;4299;42.202;24.736;2023-01-29T02:37:28;99877.47;;;3.87;nan
8523;BME280;4299;42.202;24.736;2023-01-29T02:40:06;99884.50;;;3.85;nan
8523;BME280;4299;42.202;24.736;2023-01-29T02:42:39;99877.53;;;3.84;nan
8523;BME280;4299;42.202;24.736;2023-01-29T02:45:13;99867.00;;;3.87;nan
8523;BME280;4299;42.202;24.736;2023-01-29T02:47:46;99876.63;;;3.86;nan
8523;BME280;4299;42.202;24.736;2023-01-29T02:50:18;99883.63;;;3.86;nan
8523;BME280;4299;42.202;24.736;2023-01-29T02:52:53;99878.31;;;3.87;nan
8523;BME280;4299;42.202;24.736;2023-01-29T02:55:25;99871.38;;;3.86;nan
8523;BME280;4299;42.202;24.736;2023-01-29T02:57:58;99887.88;;;3.90;nan
8523;BME280;4299;42.202;24.736;2023-01-29T03:00:31;99884.38;;;3.91;nan
8523;BME280;4299;42.202;24.736;2023-01-29T03:03:03;99877.38;;;3.90;nan
8523;BME280;4299;42.202;24.736;2023-01-29T03:05:38;99883.34;;;3.97;nan
8523;BME280;4299;42.202;24.736;2023-01-29T03:08:12;99883.38;;;3.95;nan
8523;BME280;4299;42.202;24.736;2023-01-29T03:10:46;99885.94;;;3.98;nan
8523;BME280;4299;42.202;24.736;2023-01-29T03:13:18;99885.94;;;3.98;nan
8523;BME280;4299;42.202;24.736;2023-01-29T03:15:51;99885.94;;;3.98;nan
8523;BME280;4299;42.202;24.736;2023-01-29T03:18:28;99885.94;;;3.98;nan
8523;BME280;4299;42.202;24.736;2023-01-29T03:21:00;99891.13;;;4.01;nan
8523;BME280;4299;42.202;24.736;2023-01-29T03:23:48;99893.97;;;3.92;nan
8523;BME280;4299;42.202;24.736;2023-01-29T03:26:33;99900.84;;;3.96;nan
8523;BME280;4299;42.202;24.736;2023-01-29T03:29:18;99900.97;;;3.91;nan
8523;BME280;4299;42.202;24.736;2023-01-29T03:32:05;99901.81;;;3.92;nan
8523;BME280;4299;42.202;24.736;2023-01-29T03:34:38;99908.72;;;3.96;nan
8523;BME280;4299;42.202;24.736;2023-01-29T03:37:10;99904.38;;;3.95;nan
8523;BME280;4299;42.202;24.736;2023-01-29T03:39:40;99900.81;;;3.98;nan
8523;BME280;4299;42.202;24.736;2023-01-29T03:42:14;99908.66;;;3.99;nan
8523;BME280;4299;42.202;24.736;2023-01-29T03:44:48;99899.91;;;4.00;nan
8523;BME280;4299;42.202;24.736;2023-01-29T03:47:22;99903.44;;;3.98;nan
8523;BME280;4299;42.202;24.736;2023-01-29T03:49:57;99910.44;;;3.97;nan
8523;BME280;4299;42.202;24.736;2023-01-29T03:52:27;99907.00;;;3.95;nan
8523;BME280;4299;42.202;24.736;2023-01-29T03:55:03;99917.56;;;3.92;nan
8523;BME280;4299;42.202;24.736;2023-01-29T03:57:37;99910.72;;;3.85;nan
8523;BME280;4299;42.202;24.736;2023-01-29T04:00:13;99910.88;;;3.79;nan
8523;BME280;4299;42.202;24.736;2023-01-29T04:02:49;99918.75;;;3.77;nan
8523;BME280;4299;42.202;24.736;2023-01-29T04:05:20;99921.56;;;3.70;nan
8523;BME280;4299;42.202;24.736;2023-01-29T04:07:52;99921.69;;;3.64;nan
8523;BME280;4299;42.202;24.736;2023-01-29T04:10:23;99933.91;;;3.65;nan
8523;BME280;4299;42.202;24.736;2023-01-29T04:12:55;99932.31;;;3.58;nan
8523;BME280;4299;42.202;24.736;2023-01-29T04:15:25;99944.47;;;3.60;nan
8523;BME280;4299;42.202;24.736;2023-01-29T04:17:56;99941.97;;;3.54;nan
8523;BME280;4299;42.202;24.736;2023-01-29T04:20:23;99937.59;;;3.55;nan
8523;BME280;4299;42.202;24.736;2023-01-29T04:22:51;99941.09;;;3.53;nan
8523;BME280;4299;42.202;24.736;2023-01-29T04:25:20;99943.72;;;3.53;nan
8523;BME280;4299;42.202;24.736;2023-01-29T04:27:56;99946.44;;;3.50;nan
8523;BME280;4299;42.202;24.736;2023-01-29T04:30:34;99945.59;;;3.48;nan
8523;BME280;4299;42.202;24.736;2023-01-29T04:33:11;99948.25;;;3.45;nan
8523;BME280;4299;42.202;24.736;2023-01-29T04:35:53;99944.91;;;3.39;nan
8523;BME280;4299;42.202;24.736;2023-01-29T04:38:34;99946.72;;;3.35;nan
8523;BME280;4299;42.202;24.736;2023-01-29T04:41:07;99945.13;;;3.28;nan
8523;BME280;4299;42.202;24.736;2023-01-29T04:43:41;99943.38;;;3.27;nan
8523;BME280;4299;42.202;24.736;2023-01-29T04:46:14;99945.16;;;3.25;nan
8523;BME280;4299;42.202;24.736;2023-01-29T04:48:56;99941.66;;;3.26;nan
8523;BME280;4299;42.202;24.736;2023-01-29T04:51:33;99950.41;;;3.25;nan
8523;BME280;4299;42.202;24.736;2023-01-29T04:54:08;99952.19;;;3.23;nan
8523;BME280;4299;42.202;24.736;2023-01-29T04:56:41;99950.41;;;3.25;nan
8523;BME280;4299;42.202;24.736;2023-01-29T04:59:16;99952.13;;;3.26;nan
8523;BME280;4299;42.202;24.736;2023-01-29T05:01:46;99959.16;;;3.24;nan
8523;BME280;4299;42.202;24.736;2023-01-29T05:04:18;99953.91;;;3.24;nan
8523;BME280;4299;42.202;24.736;2023-01-29T05:06:45;99956.56;;;3.23;nan
8523;BME280;4299;42.202;24.736;2023-01-29T05:09:14;99954.78;;;3.25;nan
8523;BME280;4299;42.202;24.736;2023-01-29T05:11:43;99953.91;;;3.24;nan
8523;BME280;4299;42.202;24.736;2023-01-29T05:14:12;99946.16;;;3.20;nan
8523;BME280;4299;42.202;24.736;2023-01-29T05:16:42;99961.00;;;3.19;nan
8523;BME280;4299;42.202;24.736;2023-01-29T05:19:12;99957.63;;;3.14;nan
8523;BME280;4299;42.202;24.736;2023-01-29T05:21:42;99958.50;;;3.13;nan
8523;BME280;4299;42.202;24.736;2023-01-29T05:24:11;99964.56;;;3.15;nan
8523;BME280;4299;42.202;24.736;2023-01-29T05:26:39;99966.38;;;3.13;nan
8523;BME280;4299;42.202;24.736;2023-01-29T05:29:23;99969.78;;;3.15;nan
8523;BME280;4299;42.202;24.736;2023-01-29T05:31:50;99973.22;;;3.20;nan
8523;BME280;4299;42.202;24.736;2023-01-29T05:34:16;99969.59;;;3.27;nan
8523;BME280;4299;42.202;24.736;2023-01-29T05:36:44;99978.22;;;3.32;nan
8523;BME280;4299;42.202;24.736;2023-01-29T05:39:11;99974.59;;;3.39;nan
8523;BME280;4299;42.202;24.736;2023-01-29T05:41:38;99979.78;;;3.42;nan
8523;BME280;4299;42.202;24.736;2023-01-29T05:44:05;99983.16;;;3.47;nan
8523;BME280;4299;42.202;24.736;2023-01-29T05:46:31;99983.03;;;3.53;nan
8523;BME280;4299;42.202;24.736;2023-01-29T05:48:58;99983.00;;;3.57;nan
8523;BME280;4299;42.202;24.736;2023-01-29T05:51:25;99994.22;;;3.63;nan
8523;BME280;4299;42.202;24.736;2023-01-29T05:53:53;100002.75;;;3.73;nan
8523;BME280;4299;42.202;24.736;2023-01-29T05:56:19;99998.41;;;3.72;nan
8523;BME280;4299;42.202;24.736;2023-01-29T05:58:46;100007.09;;;3.74;nan
8523;BME280;4299;42.202;24.736;2023-01-29T06:01:15;100002.75;;;3.73;nan
8523;BME280;4299;42.202;24.736;2023-01-29T06:03:42;100001.84;;;3.74;nan
8523;BME280;4299;42.202;24.736;2023-01-29T06:06:09;100007.16;;;3.71;nan
8523;BME280;4299;42.202;24.736;2023-01-29T06:08:37;100015.00;;;3.72;nan
8523;BME280;4299;42.202;24.736;2023-01-29T06:11:07;100007.03;;;3.77;nan
8523;BME280;4299;42.202;24.736;2023-01-29T06:13:34;100007.03;;;3.77;nan
8523;BME280;4299;42.202;24.736;2023-01-29T06:16:03;100014.88;;;3.78;nan
8523;BME280;4299;42.202;24.736;2023-01-29T06:18:30;100019.19;;;3.81;nan
8523;BME280;4299;42.202;24.736;2023-01-29T06:20:59;100026.97;;;3.87;nan
8523;BME280;4299;42.202;24.736;2023-01-29T06:23:26;100026.03;;;3.88;nan
8523;BME280;4299;42.202;24.736;2023-01-29T06:25:57;100018.06;;;3.94;nan
8523;BME280;4299;42.202;24.736;2023-01-29T06:28:25;100033.66;;;4.00;nan
8523;BME280;4299;42.202;24.736;2023-01-29T06:30:56;100034.38;;;4.08;nan
8523;BME280;4299;42.202;24.736;2023-01-29T06:33:23;100039.41;;;4.17;nan
8523;BME280;4299;42.202;24.736;2023-01-29T06:35:54;100038.28;;;4.29;nan
8523;BME280;4299;42.202;24.736;2023-01-29T06:38:21;100033.69;;;4.39;nan
8523;BME280;4299;42.202;24.736;2023-01-29T06:40:47;100045.66;;;4.52;nan
8523;BME280;4299;42.202;24.736;2023-01-29T06:43:14;100043.78;;;4.57;nan
8523;BME280;4299;42.202;24.736;2023-01-29T06:45:47;100062.75;;;4.68;nan
8523;BME280;4299;42.202;24.736;2023-01-29T06:48:13;100054.69;;;4.77;nan
8523;BME280;4299;42.202;24.736;2023-01-29T06:50:40;100058.13;;;4.81;nan
8523;BME280;4299;42.202;24.736;2023-01-29T06:53:07;100063.22;;;4.87;nan
8523;BME280;4299;42.202;24.736;2023-01-29T06:55:34;100057.81;;;4.93;nan
8523;BME280;4299;42.202;24.736;2023-01-29T06:58:04;100062.00;;;5.01;nan
8523;BME280;4299;42.202;24.736;2023-01-29T07:00:31;100061.84;;;5.07;nan
8523;BME280;4299;42.202;24.736;2023-01-29T07:02:59;100065.91;;;5.19;nan
8523;BME280;4299;42.202;24.736;2023-01-29T07:05:26;100065.78;;;5.25;nan
8523;BME280;4299;42.202;24.736;2023-01-29T07:07:53;100071.66;;;5.35;nan
8523;BME280;4299;42.202;24.736;2023-01-29T07:10:19;100071.59;;;5.38;nan
8523;BME280;4299;42.202;24.736;2023-01-29T07:12:46;100082.97;;;5.38;nan
8523;BME280;4299;42.202;24.736;2023-01-29T07:15:13;100092.69;;;5.35;nan
8523;BME280;4299;42.202;24.736;2023-01-29T07:17:43;100091.19;;;5.25;nan
8523;BME280;4299;42.202;24.736;2023-01-29T07:20:12;100077.16;;;5.26;nan
8523;BME280;4299;42.202;24.736;2023-01-29T07:22:38;100085.69;;;5.34;nan
8523;BME280;4299;42.202;24.736;2023-01-29T07:25:06;100088.91;;;5.45;nan
8523;BME280;4299;42.202;24.736;2023-01-29T07:27:33;100081.59;;;5.56;nan
8523;BME280;4299;42.202;24.736;2023-01-29T07:30:00;100083.28;;;5.60;nan
8523;BME280;4299;42.202;24.736;2023-01-29T07:32:27;100086.47;;;5.71;nan
8523;BME280;4299;42.202;24.736;2023-01-29T07:34:54;100090.75;;;5.75;nan
8523;BME280;4299;42.202;24.736;2023-01-29T07:37:22;100088.13;;;5.75;nan
8523;BME280;4299;42.202;24.736;2023-01-29T07:39:49;100093.69;;;5.63;nan
8523;BME280;4299;42.202;24.736;2023-01-29T07:42:15;100086.72;;;5.62;nan
8523;BME280;4299;42.202;24.736;2023-01-29T07:44:42;100090.56;;;5.49;nan
8523;BME280;4299;42.202;24.736;2023-01-29T07:47:09;100085.31;;;5.49;nan
8523;BME280;4299;42.202;24.736;2023-01-29T07:49:35;100090.66;;;5.46;nan
8523;BME280;4299;42.202;24.736;2023-01-29T07:52:02;100093.16;;;5.51;nan
8523;BME280;4299;42.202;24.736;2023-01-29T07:54:31;100096.66;;;5.51;nan
8523;BME280;4299;42.202;24.736;2023-01-29T07:57:00;100104.47;;;5.54;nan
8523;BME280;4299;42.202;24.736;2023-01-29T07:59:26;100107.91;;;5.56;nan
8523;BME280;4299;42.202;24.736;2023-01-29T08:01:53;100101.00;;;5.52;nan
8523;BME280;4299;42.202;24.736;2023-01-29T08:04:20;100118.56;;;5.52;nan
8523;BME280;4299;42.202;24.736;2023-01-29T08:06:46;100116.78;;;5.52;nan
8523;BME280;4299;42.202;24.736;2023-01-29T08:09:13;100111.19;;;5.64;nan
8523;BME280;4299;42.202;24.736;2023-01-29T08:11:41;100117.16;;;5.71;nan
8523;BME280;4299;42.202;24.736;2023-01-29T08:14:08;100121.66;;;5.67;nan
8523;BME280;4299;42.202;24.736;2023-01-29T08:16:34;100119.03;;;5.67;nan
8523;BME280;4299;42.202;24.736;2023-01-29T08:19:01;100116.22;;;5.73;nan
8523;BME280;4299;42.202;24.736;2023-01-29T08:21:27;100107.25;;;5.80;nan
8523;BME280;4299;42.202;24.736;2023-01-29T08:23:54;100112.34;;;5.86;nan
8523;BME280;4299;42.202;24.736;2023-01-29T08:26:20;100117.34;;;5.99;nan
8523;BME280;4299;42.202;24.736;2023-01-29T08:28:48;100123.94;;;6.13;nan
8523;BME280;4299;42.202;24.736;2023-01-29T08:31:16;100123.81;;;6.18;nan
8523;BME280;4299;42.202;24.736;2023-01-29T08:33:44;100118.44;;;6.21;nan
8523;BME280;4299;42.202;24.736;2023-01-29T08:36:11;100127.09;;;6.26;nan
8523;BME280;4299;42.202;24.736;2023-01-29T08:38:38;100127.28;;;6.20;nan
8523;BME280;4299;42.202;24.736;2023-01-29T08:41:05;100125.28;;;6.28;nan
8523;BME280;4299;42.202;24.736;2023-01-29T08:43:32;100131.28;;;6.33;nan
8523;BME280;4299;42.202;24.736;2023-01-29T08:46:02;100126.44;;;6.49;nan
8523;BME280;4299;42.202;24.736;2023-01-29T08:48:29;100136.75;;;6.56;nan
8523;BME280;4299;42.202;24.736;2023-01-29T08:50:57;100128.78;;;6.58;nan
8523;BME280;4299;42.202;24.736;2023-01-29T08:53:24;100133.78;;;6.67;nan
8523;BME280;4299;42.202;24.736;2023-01-29T08:55:51;100136.19;;;6.75;nan
8523;BME280;4299;42.202;24.736;2023-01-29T08:58:18;100134.25;;;6.80;nan
8523;BME280;4299;42.202;24.736;2023-01-29T09:00:45;100121.56;;;6.94;nan
8523;BME280;4299;42.202;24.736;2023-01-29T09:03:13;100129.94;;;7.07;nan
8523;BME280;4299;42.202;24.736;2023-01-29T09:05:40;100133.13;;;7.16;nan
8523;BME280;4299;42.202;24.736;2023-01-29T09:08:07;100129.50;;;7.20;nan
8523;BME280;4299;42.202;24.736;2023-01-29T09:10:34;100130.47;;;7.16;nan
8523;BME280;4299;42.202;24.736;2023-01-29T09:13:01;100132.75;;;7.28;nan
8523;BME280;4299;42.202;24.736;2023-01-29T09:15:28;100129.19;;;7.29;nan
8523;BME280;4299;42.202;24.736;2023-01-29T09:17:55;100130.94;;;7.30;nan
8523;BME280;4299;42.202;24.736;2023-01-29T09:20:23;100134.72;;;7.48;nan
8523;BME280;4299;42.202;24.736;2023-01-29T09:22:50;100131.13;;;7.51;nan
8523;BME280;4299;42.202;24.736;2023-01-29T09:25:18;100135.94;;;7.64;nan
8523;BME280;4299;42.202;24.736;2023-01-29T09:27:44;100133.34;;;7.63;nan
8523;BME280;4299;42.202;24.736;2023-01-29T09:30:12;100129.28;;;7.79;nan
8523;BME280;4299;42.202;24.736;2023-01-29T09:32:39;100125.38;;;7.89;nan
8523;BME280;4299;42.202;24.736;2023-01-29T09:35:06;100129.06;;;7.85;nan
8523;BME280;4299;42.202;24.736;2023-01-29T09:37:34;100136.28;;;7.80;nan
8523;BME280;4299;42.202;24.736;2023-01-29T09:40:01;100130.09;;;7.81;nan
8523;BME280;4299;42.202;24.736;2023-01-29T09:42:34;100127.13;;;7.90;nan
8523;BME280;4299;42.202;24.736;2023-01-29T09:45:11;100129.50;;;7.98;nan
8523;BME280;4299;42.202;24.736;2023-01-29T09:47:40;100120.31;;;7.83;nan
8523;BME280;4299;42.202;24.736;2023-01-29T09:50:14;100124.47;;;7.90;nan
8523;BME280;4299;42.202;24.736;2023-01-29T09:52:46;100118.19;;;7.94;nan
8523;BME280;4299;42.202;24.736;2023-01-29T09:55:20;100113.44;;;7.79;nan
8523;BME280;4299;42.202;24.736;2023-01-29T09:57:50;100114.03;;;7.87;nan
8523;BME280;4299;42.202;24.736;2023-01-29T10:00:22;100114.81;;;7.89;nan
8523;BME280;4299;42.202;24.736;2023-01-29T10:03:07;100116.25;;;7.99;nan
8523;BME280;4299;42.202;24.736;2023-01-29T10:05:49;100114.63;;;7.95;nan
8523;BME280;4299;42.202;24.736;2023-01-29T10:11:32;100111.53;;;8.07;nan
8523;BME280;4299;42.202;24.736;2023-01-29T10:14:10;100105.03;;;8.17;nan
8523;BME280;4299;42.202;24.736;2023-01-29T10:16:49;100098.03;;;8.16;nan
8523;BME280;4299;42.202;24.736;2023-01-29T10:19:31;100098.03;;;8.16;nan
8523;BME280;4299;42.202;24.736;2023-01-29T10:24:57;100085.72;;;8.15;nan
8523;BME280;4299;42.202;24.736;2023-01-29T10:27:31;100087.41;;;8.41;nan
8523;BME280;4299;42.202;24.736;2023-01-29T10:29:58;100078.81;;;8.36;nan
8523;BME280;4299;42.202;24.736;2023-01-29T10:32:26;100074.84;;;8.25;nan
8523;BME280;4299;42.202;24.736;2023-01-29T10:34:56;100077.16;;;8.34;nan
8523;BME280;4299;42.202;24.736;2023-01-29T10:37:29;100076.22;;;8.35;nan
8523;BME280;4299;42.202;24.736;2023-01-29T10:40:01;100071.16;;;8.29;nan
8523;BME280;4299;42.202;24.736;2023-01-29T10:42:43;100074.84;;;8.25;nan
8523;BME280;4299;42.202;24.736;2023-01-29T10:45:20;100069.41;;;8.28;nan
8523;BME280;4299;42.202;24.736;2023-01-29T10:50:47;100056.16;;;8.31;nan
8523;BME280;4299;42.202;24.736;2023-01-29T10:53:35;100051.75;;;8.30;nan
8523;BME280;4299;42.202;24.736;2023-01-29T10:56:15;100050.50;;;8.16;nan
8523;BME280;4299;42.202;24.736;2023-01-29T10:58:49;100055.28;;;8.05;nan
8523;BME280;4299;42.202;24.736;2023-01-29T11:01:17;100049.84;;;8.10;nan
8523;BME280;4299;42.202;24.736;2023-01-29T11:03:45;100048.13;;;8.09;nan
8523;BME280;4299;42.202;24.736;2023-01-29T11:06:22;100050.34;;;8.19;nan
8523;BME280;4299;42.202;24.736;2023-01-29T11:08:53;100046.00;;;8.42;nan
8523;BME280;4299;42.202;24.736;2023-01-29T11:11:25;100046.81;;;8.44;nan
8523;BME280;4299;42.202;24.736;2023-01-29T11:14:00;100050.16;;;8.49;nan
8523;BME280;4299;42.202;24.736;2023-01-29T11:16:39;100044.81;;;8.50;nan
8523;BME280;4299;42.202;24.736;2023-01-29T11:19:06;100044.63;;;8.55;nan
8523;BME280;4299;42.202;24.736;2023-01-29T11:21:49;100046.91;;;8.64;nan
8523;BME280;4299;42.202;24.736;2023-01-29T11:24:16;100042.31;;;8.69;nan
8523;BME280;4299;42.202;24.736;2023-01-29T11:26:45;100037.47;;;8.80;nan
8523;BME280;4299;42.202;24.736;2023-01-29T11:29:31;100037.34;;;9.05;nan
8523;BME280;4299;42.202;24.736;2023-01-29T11:32:00;100027.38;;;9.12;nan
8523;BME280;4299;42.202;24.736;2023-01-29T11:34:28;100025.50;;;9.14;nan
8523;BME280;4299;42.202;24.736;2023-01-29T11:36:57;100018.97;;;9.22;nan
8523;BME280;4299;42.202;24.736;2023-01-29T11:39:25;100014.94;;;9.34;nan
8523;BME280;4299;42.202;24.736;2023-01-29T11:41:55;100018.91;;;9.44;nan
8523;BME280;4299;42.202;24.736;2023-01-29T11:44:30;100005.16;;;9.56;nan
8523;BME280;4299;42.202;24.736;2023-01-29T11:47:09;100010.53;;;9.55;nan
8523;BME280;4299;42.202;24.736;2023-01-29T11:49:38;100012.09;;;9.38;nan
8523;BME280;4299;42.202;24.736;2023-01-29T11:52:07;100007.50;;;9.22;nan
8523;BME280;4299;42.202;24.736;2023-01-29T11:54:37;100006.75;;;9.20;nan
8523;BME280;4299;42.202;24.736;2023-01-29T11:57:20;100015.41;;;9.23;nan
8523;BME280;4299;42.202;24.736;2023-01-29T11:59:50;100005.47;;;9.08;nan
8523;BME280;4299;42.202;24.736;2023-01-29T12:02:22;100001.03;;;9.09;nan
8523;BME280;4299;42.202;24.736;2023-01-29T12:04:53;100004.59;;;9.08;nan
8523;BME280;4299;42.202;24.736;2023-01-29T12:07:21;99996.53;;;9.11;nan
8523;BME280;4299;42.202;24.736;2023-01-29T12:09:51;99992.97;;;9.12;nan
8523;BME280;4299;42.202;24.736;2023-01-29T12:12:38;99991.91;;;9.16;nan
8523;BME280;4299;42.202;24.736;2023-01-29T12:15:20;99991.03;;;9.15;nan
8523;BME280;4299;42.202;24.736;2023-01-29T12:18:00;99985.31;;;9.06;nan
8523;BME280;4299;42.202;24.736;2023-01-29T12:20:33;99986.34;;;9.02;nan
8523;BME280;4299;42.202;24.736;2023-01-29T12:23:13;99981.16;;;8.98;nan
8523;BME280;4299;42.202;24.736;2023-01-29T12:25:48;99978.94;;;8.89;nan
8523;BME280;4299;42.202;24.736;2023-01-29T12:28:35;99978.63;;;8.75;nan
8523;BME280;4299;42.202;24.736;2023-01-29T12:31:27;99968.19;;;8.72;nan
8523;BME280;4299;42.202;24.736;2023-01-29T12:34:02;99975.69;;;8.61;nan
8523;BME280;4299;42.202;24.736;2023-01-29T12:36:35;99978.19;;;8.64;nan
8523;BME280;4299;42.202;24.736;2023-01-29T12:39:04;99972.28;;;8.79;nan
8523;BME280;4299;42.202;24.736;2023-01-29T12:41:37;99966.47;;;8.91;nan
8523;BME280;4299;42.202;24.736;2023-01-29T12:44:11;99969.81;;;8.96;nan
8523;BME280;4299;42.202;24.736;2023-01-29T12:46:44;99961.75;;;8.99;nan
8523;BME280;4299;42.202;24.736;2023-01-29T12:49:17;99967.56;;;9.08;nan
8523;BME280;4299;42.202;24.736;2023-01-29T12:51:52;99968.03;;;9.17;nan
8523;BME280;4299;42.202;24.736;2023-01-29T12:54:24;99975.94;;;9.19;nan
8523;BME280;4299;42.202;24.736;2023-01-29T12:56:55;99979.59;;;9.15;nan
8523;BME280;4299;42.202;24.736;2023-01-29T12:59:29;99986.50;;;9.19;nan
8523;BME280;4299;42.202;24.736;2023-01-29T13:02:01;99983.44;;;9.08;nan
8523;BME280;4299;42.202;24.736;2023-01-29T13:04:35;99985.53;;;8.99;nan
8523;BME280;4299;42.202;24.736;2023-01-29T13:07:09;99986.88;;;8.89;nan
8523;BME280;4299;42.202;24.736;2023-01-29T13:09:38;99991.44;;;8.84;nan
8523;BME280;4299;42.202;24.736;2023-01-29T13:12:11;99987.91;;;8.85;nan
8523;BME280;4299;42.202;24.736;2023-01-29T13:14:44;99986.88;;;8.89;nan
8523;BME280;4299;42.202;24.736;2023-01-29T13:17:18;99981.03;;;8.81;nan
8523;BME280;4299;42.202;24.736;2023-01-29T13:19:50;99985.56;;;8.78;nan
8523;BME280;4299;42.202;24.736;2023-01-29T13:22:21;99984.19;;;8.69;nan
8523;BME280;4299;42.202;24.736;2023-01-29T13:24:49;99979.81;;;8.68;nan
8523;BME280;4299;42.202;24.736;2023-01-29T13:27:21;99980.69;;;8.69;nan
8523;BME280;4299;42.202;24.736;2023-01-29T13:29:48;99979.13;;;8.63;nan
8523;BME280;4299;42.202;24.736;2023-01-29T13:32:22;99978.56;;;8.55;nan
8523;BME280;4299;42.202;24.736;2023-01-29T13:34:51;99985.00;;;8.48;nan
8523;BME280;4299;42.202;24.736;2023-01-29T13:37:25;99980.78;;;8.44;nan
8523;BME280;4299;42.202;24.736;2023-01-29T13:39:54;99977.72;;;8.33;nan
8523;BME280;4299;42.202;24.736;2023-01-29T13:42:24;99983.00;;;8.33;nan
8523;BME280;4299;42.202;24.736;2023-01-29T13:45:00;99971.69;;;8.28;nan
8523;BME280;4299;42.202;24.736;2023-01-29T13:47:30;99975.63;;;8.17;nan
8523;BME280;4299;42.202;24.736;2023-01-29T13:50:01;99973.97;;;8.15;nan
8523;BME280;4299;42.202;24.736;2023-01-29T13:52:34;99978.84;;;8.02;nan
8523;BME280;4299;42.202;24.736;2023-01-29T13:55:04;99986.94;;;7.98;nan
8523;BME280;4299;42.202;24.736;2023-01-29T13:57:50;99984.38;;;7.96;nan
8523;BME280;4299;42.202;24.736;2023-01-29T14:03:51;99978.03;;;7.77;nan
8523;BME280;4299;42.202;24.736;2023-01-29T14:06:53;99986.88;;;7.76;nan
8523;BME280;4299;42.202;24.736;2023-01-29T14:12:34;99983.06;;;7.60;nan
8523;BME280;4299;42.202;24.736;2023-01-29T14:15:15;99978.81;;;7.56;nan
8523;BME280;4299;42.202;24.736;2023-01-29T14:17:54;99980.53;;;7.57;nan